Startpagina
METAR-TAF:

METAR-TAF

Vliegvelden :

Tunis, Tunesië

Luchthaven Tunis-Carthage

breedte: 36-50N, lengte: 010-14E, hoogte: 3 m

Actueel weer

Dit bericht is 29 minuten geleden gemaakt, om 12:30 UTC
Wind 4 kt uit het zuidzuidoosten, variërend tussen het oostzuidoosten en het zuidzuidwesten
Temperatuur 21°C
Vochtigheid 49%
Druk 1018 hPa
Zicht 10 km of meer
Weinig wolken op 2600 ft

METAR: DTTA 221230Z 16004KT 110V200 9999 FEW026 21/10 Q1018 NOSIG

Tijdstip: 13:59 (12:59 UTC)

Verwachting

Dit bericht is 1 uur en het 59 minuten geleden gemaakt, om 11:00 UTC
Verwachting geldig van 22 om 12 UTC tot 23 om 12 UTC
Wind 6 kt uit het zuiden
Zicht: 8000 m
Weinig wolken op 2600 ft
Kans 30% :
Tijdelijke
van 22 om 20 UTC tot 23 om 03 UTC
Wind 17 kt uit het zuiden met uitschieters tot 27 kt

TAF: DTTA 221100Z 2212/2312 18006KT 8000 FEW026 PROB30 TEMPO 2220/2303 18017G27KT

Waarnemingen en weersverwachtingen van meer dan 4000 vliegvelden (METAR en TAF).

De beschikbare stations zijn de gele en rode punten op de kaart.

Ga met uw muis naar het station om de naam te zien.

Klik dan om waarnemingen en weersverwachtingen te zien.

kaart wijzigen: klik op de groene knoppen met een zwart kruis om in te zoomen, op de groene knop met een streepje om uit te zoomen of op de groene pijlen voor aangrenzende kaarten.


METAR-TAF: